sensor_id;sensor_type;location;lat;lon;timestamp;P1;durP1;ratioP1;P2;durP2;ratioP2
13981;SDS011;7065;50.880;5.502;2023-05-07T00:00:02;5.63;;;5.20;;
13981;SDS011;7065;50.880;5.502;2023-05-07T00:02:32;5.82;;;4.53;;
13981;SDS011;7065;50.880;5.502;2023-05-07T00:04:58;6.03;;;5.05;;
13981;SDS011;7065;50.880;5.502;2023-05-07T00:07:24;6.32;;;5.40;;
13981;SDS011;7065;50.880;5.502;2023-05-07T00:09:50;5.20;;;4.80;;
13981;SDS011;7065;50.880;5.502;2023-05-07T00:12:16;5.50;;;4.80;;
13981;SDS011;7065;50.880;5.502;2023-05-07T00:14:42;7.45;;;5.93;;
13981;SDS011;7065;50.880;5.502;2023-05-07T00:17:07;5.40;;;4.75;;
13981;SDS011;7065;50.880;5.502;2023-05-07T00:19:33;7.30;;;5.93;;
13981;SDS011;7065;50.880;5.502;2023-05-07T00:21:59;6.55;;;5.95;;
13981;SDS011;7065;50.880;5.502;2023-05-07T00:24:25;5.82;;;5.32;;
13981;SDS011;7065;50.880;5.502;2023-05-07T00:26:50;6.30;;;5.70;;
13981;SDS011;7065;50.880;5.502;2023-05-07T00:29:17;5.43;;;4.93;;
13981;SDS011;7065;50.880;5.502;2023-05-07T00:31:43;5.80;;;5.30;;
13981;SDS011;7065;50.880;5.502;2023-05-07T00:34:09;6.75;;;5.50;;
13981;SDS011;7065;50.880;5.502;2023-05-07T00:36:35;6.75;;;6.00;;
13981;SDS011;7065;50.880;5.502;2023-05-07T00:39:00;6.35;;;5.75;;
13981;SDS011;7065;50.880;5.502;2023-05-07T00:41:28;6.95;;;6.03;;
13981;SDS011;7065;50.880;5.502;2023-05-07T00:43:55;5.93;;;5.43;;
13981;SDS011;7065;50.880;5.502;2023-05-07T00:46:21;5.93;;;5.35;;
13981;SDS011;7065;50.880;5.502;2023-05-07T00:48:49;6.38;;;5.78;;
13981;SDS011;7065;50.880;5.502;2023-05-07T00:51:16;8.38;;;5.57;;
13981;SDS011;7065;50.880;5.502;2023-05-07T00:53:43;6.60;;;6.00;;
13981;SDS011;7065;50.880;5.502;2023-05-07T00:56:09;7.43;;;6.72;;
13981;SDS011;7065;50.880;5.502;2023-05-07T00:58:36;7.95;;;7.18;;
13981;SDS011;7065;50.880;5.502;2023-05-07T01:01:02;7.60;;;6.90;;
13981;SDS011;7065;50.880;5.502;2023-05-07T01:03:28;7.80;;;7.13;;
13981;SDS011;7065;50.880;5.502;2023-05-07T01:05:54;8.77;;;7.50;;
13981;SDS011;7065;50.880;5.502;2023-05-07T01:08:22;8.77;;;7.78;;
13981;SDS011;7065;50.880;5.502;2023-05-07T01:10:51;8.93;;;8.02;;
13981;SDS011;7065;50.880;5.502;2023-05-07T01:13:18;8.73;;;7.85;;
13981;SDS011;7065;50.880;5.502;2023-05-07T01:15:44;9.50;;;8.52;;
13981;SDS011;7065;50.880;5.502;2023-05-07T01:18:10;10.77;;;9.70;;
13981;SDS011;7065;50.880;5.502;2023-05-07T01:20:36;10.48;;;8.85;;
13981;SDS011;7065;50.880;5.502;2023-05-07T01:23:01;10.02;;;8.70;;
13981;SDS011;7065;50.880;5.502;2023-05-07T01:25:28;11.10;;;10.00;;
13981;SDS011;7065;50.880;5.502;2023-05-07T01:27:55;10.50;;;9.13;;
13981;SDS011;7065;50.880;5.502;2023-05-07T01:30:21;10.75;;;9.55;;
13981;SDS011;7065;50.880;5.502;2023-05-07T01:32:49;9.00;;;8.20;;
13981;SDS011;7065;50.880;5.502;2023-05-07T01:35:19;8.88;;;8.07;;
13981;SDS011;7065;50.880;5.502;2023-05-07T01:37:47;9.50;;;8.57;;
13981;SDS011;7065;50.880;5.502;2023-05-07T01:40:14;9.38;;;8.48;;
13981;SDS011;7065;50.880;5.502;2023-05-07T01:42:40;9.75;;;8.75;;
13981;SDS011;7065;50.880;5.502;2023-05-07T01:45:08;9.82;;;8.82;;
13981;SDS011;7065;50.880;5.502;2023-05-07T01:47:34;10.00;;;9.00;;
13981;SDS011;7065;50.880;5.502;2023-05-07T01:50:01;10.23;;;9.32;;
13981;SDS011;7065;50.880;5.502;2023-05-07T01:52:27;10.20;;;9.30;;
13981;SDS011;7065;50.880;5.502;2023-05-07T01:54:53;10.38;;;9.27;;
13981;SDS011;7065;50.880;5.502;2023-05-07T01:57:19;10.65;;;9.35;;
13981;SDS011;7065;50.880;5.502;2023-05-07T01:59:45;9.88;;;8.98;;
13981;SDS011;7065;50.880;5.502;2023-05-07T02:02:10;9.40;;;8.50;;
13981;SDS011;7065;50.880;5.502;2023-05-07T02:04:36;9.43;;;8.63;;
13981;SDS011;7065;50.880;5.502;2023-05-07T02:07:02;9.27;;;8.38;;
13981;SDS011;7065;50.880;5.502;2023-05-07T02:09:27;9.70;;;8.80;;
13981;SDS011;7065;50.880;5.502;2023-05-07T02:11:53;9.70;;;8.80;;
13981;SDS011;7065;50.880;5.502;2023-05-07T02:14:19;11.65;;;10.45;;
13981;SDS011;7065;50.880;5.502;2023-05-07T02:16:45;10.50;;;9.60;;
13981;SDS011;7065;50.880;5.502;2023-05-07T02:19:11;10.77;;;9.77;;
13981;SDS011;7065;50.880;5.502;2023-05-07T02:21:36;11.60;;;10.43;;
13981;SDS011;7065;50.880;5.502;2023-05-07T02:24:02;10.25;;;9.20;;
13981;SDS011;7065;50.880;5.502;2023-05-07T02:26:28;10.50;;;9.20;;
13981;SDS011;7065;50.880;5.502;2023-05-07T02:28:53;10.27;;;9.25;;
13981;SDS011;7065;50.880;5.502;2023-05-07T02:31:19;10.05;;;9.10;;
13981;SDS011;7065;50.880;5.502;2023-05-07T02:33:45;9.02;;;8.23;;
13981;SDS011;7065;50.880;5.502;2023-05-07T02:36:11;8.77;;;7.97;;
13981;SDS011;7065;50.880;5.502;2023-05-07T02:38:37;9.10;;;8.30;;
13981;SDS011;7065;50.880;5.502;2023-05-07T02:41:03;9.25;;;8.45;;
13981;SDS011;7065;50.880;5.502;2023-05-07T02:43:29;9.52;;;8.68;;
13981;SDS011;7065;50.880;5.502;2023-05-07T02:48:31;9.52;;;8.73;;
13981;SDS011;7065;50.880;5.502;2023-05-07T02:50:57;10.07;;;9.18;;
13981;SDS011;7065;50.880;5.502;2023-05-07T02:53:23;11.48;;;10.35;;
13981;SDS011;7065;50.880;5.502;2023-05-07T02:55:53;10.65;;;9.75;;
13981;SDS011;7065;50.880;5.502;2023-05-07T02:58:19;10.65;;;9.65;;
13981;SDS011;7065;50.880;5.502;2023-05-07T03:00:45;11.88;;;10.82;;
13981;SDS011;7065;50.880;5.502;2023-05-07T03:03:10;12.02;;;10.93;;
13981;SDS011;7065;50.880;5.502;2023-05-07T03:05:36;11.40;;;10.05;;
13981;SDS011;7065;50.880;5.502;2023-05-07T03:08:02;11.25;;;10.15;;
13981;SDS011;7065;50.880;5.502;2023-05-07T03:10:29;13.43;;;12.13;;
13981;SDS011;7065;50.880;5.502;2023-05-07T03:12:55;12.68;;;11.48;;
13981;SDS011;7065;50.880;5.502;2023-05-07T03:15:21;12.80;;;11.60;;
13981;SDS011;7065;50.880;5.502;2023-05-07T03:17:47;13.40;;;12.20;;
13981;SDS011;7065;50.880;5.502;2023-05-07T03:20:13;11.38;;;10.35;;
13981;SDS011;7065;50.880;5.502;2023-05-07T03:22:39;13.90;;;12.52;;
13981;SDS011;7065;50.880;5.502;2023-05-07T03:25:05;13.25;;;11.95;;
13981;SDS011;7065;50.880;5.502;2023-05-07T03:27:32;14.23;;;12.35;;
13981;SDS011;7065;50.880;5.502;2023-05-07T03:29:57;14.13;;;12.82;;
13981;SDS011;7065;50.880;5.502;2023-05-07T03:32:24;14.15;;;12.90;;
13981;SDS011;7065;50.880;5.502;2023-05-07T03:34:50;14.05;;;12.70;;
13981;SDS011;7065;50.880;5.502;2023-05-07T03:37:15;13.38;;;12.13;;
13981;SDS011;7065;50.880;5.502;2023-05-07T03:39:41;12.77;;;11.57;;
13981;SDS011;7065;50.880;5.502;2023-05-07T03:42:07;12.35;;;11.20;;
13981;SDS011;7065;50.880;5.502;2023-05-07T03:44:32;12.13;;;10.93;;
13981;SDS011;7065;50.880;5.502;2023-05-07T03:46:58;12.43;;;11.32;;
13981;SDS011;7065;50.880;5.502;2023-05-07T03:49:24;10.82;;;9.82;;
13981;SDS011;7065;50.880;5.502;2023-05-07T03:51:50;11.05;;;10.05;;
13981;SDS011;7065;50.880;5.502;2023-05-07T03:54:15;11.82;;;10.52;;
13981;SDS011;7065;50.880;5.502;2023-05-07T03:56:41;11.13;;;10.13;;
13981;SDS011;7065;50.880;5.502;2023-05-07T03:59:07;11.25;;;10.18;;
13981;SDS011;7065;50.880;5.502;2023-05-07T04:01:33;11.02;;;9.95;;
13981;SDS011;7065;50.880;5.502;2023-05-07T04:03:58;13.18;;;11.88;;
13981;SDS011;7065;50.880;5.502;2023-05-07T04:06:24;12.40;;;11.20;;
13981;SDS011;7065;50.880;5.502;2023-05-07T04:08:50;14.15;;;12.88;;
13981;SDS011;7065;50.880;5.502;2023-05-07T04:11:16;12.65;;;11.45;;
13981;SDS011;7065;50.880;5.502;2023-05-07T04:13:42;12.02;;;10.98;;
13981;SDS011;7065;50.880;5.502;2023-05-07T04:16:07;12.20;;;11.10;;
13981;SDS011;7065;50.880;5.502;2023-05-07T04:18:33;11.50;;;10.40;;
13981;SDS011;7065;50.880;5.502;2023-05-07T04:20:59;12.15;;;10.88;;
13981;SDS011;7065;50.880;5.502;2023-05-07T04:23:24;12.52;;;11.18;;
13981;SDS011;7065;50.880;5.502;2023-05-07T04:25:50;11.98;;;10.93;;
13981;SDS011;7065;50.880;5.502;2023-05-07T04:28:16;11.20;;;10.20;;
13981;SDS011;7065;50.880;5.502;2023-05-07T04:30:42;14.85;;;9.93;;
13981;SDS011;7065;50.880;5.502;2023-05-07T04:33:08;10.70;;;9.80;;
13981;SDS011;7065;50.880;5.502;2023-05-07T04:35:34;10.90;;;9.88;;
13981;SDS011;7065;50.880;5.502;2023-05-07T04:38:00;11.70;;;10.50;;
13981;SDS011;7065;50.880;5.502;2023-05-07T04:40:26;11.77;;;10.70;;
13981;SDS011;7065;50.880;5.502;2023-05-07T04:42:52;11.38;;;10.27;;
13981;SDS011;7065;50.880;5.502;2023-05-07T04:45:18;10.57;;;9.52;;
13981;SDS011;7065;50.880;5.502;2023-05-07T04:47:44;10.82;;;9.82;;
13981;SDS011;7065;50.880;5.502;2023-05-07T04:50:10;11.02;;;10.00;;
13981;SDS011;7065;50.880;5.502;2023-05-07T04:52:36;11.65;;;10.57;;
13981;SDS011;7065;50.880;5.502;2023-05-07T04:55:02;11.27;;;10.20;;
13981;SDS011;7065;50.880;5.502;2023-05-07T04:57:28;10.55;;;9.55;;
13981;SDS011;7065;50.880;5.502;2023-05-07T04:59:53;12.23;;;11.02;;
13981;SDS011;7065;50.880;5.502;2023-05-07T05:02:19;12.63;;;11.43;;
13981;SDS011;7065;50.880;5.502;2023-05-07T05:04:45;13.13;;;11.88;;
13981;SDS011;7065;50.880;5.502;2023-05-07T05:07:11;11.95;;;10.85;;
13981;SDS011;7065;50.880;5.502;2023-05-07T05:09:37;11.02;;;10.02;;
13981;SDS011;7065;50.880;5.502;2023-05-07T05:12:02;11.27;;;10.20;;
13981;SDS011;7065;50.880;5.502;2023-05-07T05:14:29;10.43;;;9.52;;
13981;SDS011;7065;50.880;5.502;2023-05-07T05:16:54;11.88;;;10.77;;
13981;SDS011;7065;50.880;5.502;2023-05-07T05:19:20;10.82;;;9.93;;
13981;SDS011;7065;50.880;5.502;2023-05-07T05:21:46;11.50;;;10.50;;
13981;SDS011;7065;50.880;5.502;2023-05-07T05:24:11;11.98;;;10.88;;
13981;SDS011;7065;50.880;5.502;2023-05-07T05:26:37;12.73;;;11.52;;
13981;SDS011;7065;50.880;5.502;2023-05-07T05:29:03;11.90;;;10.80;;
13981;SDS011;7065;50.880;5.502;2023-05-07T05:31:29;11.82;;;10.75;;
13981;SDS011;7065;50.880;5.502;2023-05-07T05:33:55;11.18;;;10.18;;
13981;SDS011;7065;50.880;5.502;2023-05-07T05:36:20;10.55;;;9.55;;
13981;SDS011;7065;50.880;5.502;2023-05-07T05:38:46;10.55;;;9.05;;
13981;SDS011;7065;50.880;5.502;2023-05-07T05:41:12;12.00;;;10.90;;
13981;SDS011;7065;50.880;5.502;2023-05-07T05:43:37;13.23;;;12.02;;
13981;SDS011;7065;50.880;5.502;2023-05-07T05:46:03;12.80;;;11.50;;
13981;SDS011;7065;50.880;5.502;2023-05-07T05:48:29;11.85;;;10.70;;
13981;SDS011;7065;50.880;5.502;2023-05-07T05:50:55;12.77;;;11.55;;
13981;SDS011;7065;50.880;5.502;2023-05-07T05:53:21;12.80;;;11.57;;
13981;SDS011;7065;50.880;5.502;2023-05-07T05:55:46;11.43;;;10.32;;
13981;SDS011;7065;50.880;5.502;2023-05-07T05:58:12;10.77;;;9.75;;
13981;SDS011;7065;50.880;5.502;2023-05-07T06:00:41;11.20;;;10.27;;
13981;SDS011;7065;50.880;5.502;2023-05-07T06:03:07;11.07;;;9.95;;
13981;SDS011;7065;50.880;5.502;2023-05-07T06:05:32;10.73;;;9.80;;
13981;SDS011;7065;50.880;5.502;2023-05-07T06:07:58;10.32;;;9.40;;
13981;SDS011;7065;50.880;5.502;2023-05-07T06:10:24;10.85;;;9.85;;
13981;SDS011;7065;50.880;5.502;2023-05-07T06:12:51;11.10;;;10.00;;
13981;SDS011;7065;50.880;5.502;2023-05-07T06:15:16;11.32;;;10.32;;
13981;SDS011;7065;50.880;5.502;2023-05-07T06:17:42;10.23;;;9.32;;
13981;SDS011;7065;50.880;5.502;2023-05-07T06:20:08;10.15;;;9.25;;
13981;SDS011;7065;50.880;5.502;2023-05-07T06:22:34;10.20;;;9.20;;
13981;SDS011;7065;50.880;5.502;2023-05-07T06:24:59;9.32;;;8.55;;
13981;SDS011;7065;50.880;5.502;2023-05-07T06:27:25;9.50;;;8.68;;
13981;SDS011;7065;50.880;5.502;2023-05-07T06:29:52;9.18;;;8.27;;
13981;SDS011;7065;50.880;5.502;2023-05-07T06:32:18;9.10;;;8.30;;
13981;SDS011;7065;50.880;5.502;2023-05-07T06:34:44;10.50;;;9.45;;
13981;SDS011;7065;50.880;5.502;2023-05-07T06:37:10;9.00;;;8.20;;
13981;SDS011;7065;50.880;5.502;2023-05-07T06:39:35;8.98;;;8.18;;
13981;SDS011;7065;50.880;5.502;2023-05-07T06:42:01;8.50;;;7.70;;
13981;SDS011;7065;50.880;5.502;2023-05-07T06:44:27;8.52;;;7.72;;
13981;SDS011;7065;50.880;5.502;2023-05-07T06:46:53;9.88;;;9.00;;
13981;SDS011;7065;50.880;5.502;2023-05-07T06:49:19;9.95;;;9.10;;
13981;SDS011;7065;50.880;5.502;2023-05-07T06:51:45;8.52;;;7.82;;
13981;SDS011;7065;50.880;5.502;2023-05-07T06:54:11;10.18;;;9.20;;
13981;SDS011;7065;50.880;5.502;2023-05-07T06:56:37;9.38;;;8.52;;
13981;SDS011;7065;50.880;5.502;2023-05-07T06:59:03;9.48;;;8.57;;
13981;SDS011;7065;50.880;5.502;2023-05-07T07:01:28;8.25;;;7.45;;
13981;SDS011;7065;50.880;5.502;2023-05-07T07:03:54;8.27;;;7.30;;
13981;SDS011;7065;50.880;5.502;2023-05-07T07:06:20;6.70;;;6.10;;
13981;SDS011;7065;50.880;5.502;2023-05-07T07:08:46;7.45;;;6.70;;
13981;SDS011;7065;50.880;5.502;2023-05-07T07:11:12;7.25;;;6.47;;
13981;SDS011;7065;50.880;5.502;2023-05-07T07:13:37;7.32;;;6.63;;
13981;SDS011;7065;50.880;5.502;2023-05-07T07:16:03;10.55;;;8.05;;
13981;SDS011;7065;50.880;5.502;2023-05-07T07:18:29;9.27;;;6.88;;
13981;SDS011;7065;50.880;5.502;2023-05-07T07:20:55;6.50;;;5.90;;
13981;SDS011;7065;50.880;5.502;2023-05-07T07:23:20;7.35;;;6.65;;
13981;SDS011;7065;50.880;5.502;2023-05-07T07:25:46;10.35;;;8.00;;
13981;SDS011;7065;50.880;5.502;2023-05-07T07:28:12;8.82;;;7.93;;
13981;SDS011;7065;50.880;5.502;2023-05-07T07:30:38;8.85;;;8.05;;
13981;SDS011;7065;50.880;5.502;2023-05-07T07:33:04;7.38;;;6.70;;
13981;SDS011;7065;50.880;5.502;2023-05-07T07:35:33;7.93;;;7.30;;
13981;SDS011;7065;50.880;5.502;2023-05-07T07:37:58;7.35;;;6.75;;
13981;SDS011;7065;50.880;5.502;2023-05-07T07:40:24;8.63;;;7.32;;
13981;SDS011;7065;50.880;5.502;2023-05-07T07:42:51;7.47;;;6.68;;
13981;SDS011;7065;50.880;5.502;2023-05-07T07:45:17;8.40;;;6.80;;
13981;SDS011;7065;50.880;5.502;2023-05-07T07:47:43;7.53;;;6.93;;
13981;SDS011;7065;50.880;5.502;2023-05-07T07:50:09;8.57;;;7.78;;
13981;SDS011;7065;50.880;5.502;2023-05-07T07:52:35;8.48;;;7.72;;
13981;SDS011;7065;50.880;5.502;2023-05-07T07:55:01;7.15;;;6.47;;
13981;SDS011;7065;50.880;5.502;2023-05-07T07:57:27;6.38;;;5.88;;
13981;SDS011;7065;50.880;5.502;2023-05-07T07:59:52;6.93;;;5.97;;
13981;SDS011;7065;50.880;5.502;2023-05-07T08:02:18;5.88;;;5.32;;
13981;SDS011;7065;50.880;5.502;2023-05-07T08:04:44;6.25;;;5.65;;
13981;SDS011;7065;50.880;5.502;2023-05-07T08:07:10;6.30;;;5.55;;
13981;SDS011;7065;50.880;5.502;2023-05-07T08:09:39;7.00;;;6.13;;
13981;SDS011;7065;50.880;5.502;2023-05-07T08:12:06;6.25;;;5.38;;
13981;SDS011;7065;50.880;5.502;2023-05-07T08:14:32;5.30;;;4.80;;
13981;SDS011;7065;50.880;5.502;2023-05-07T08:16:59;4.32;;;4.03;;
13981;SDS011;7065;50.880;5.502;2023-05-07T08:19:25;5.78;;;5.28;;
13981;SDS011;7065;50.880;5.502;2023-05-07T08:21:51;4.90;;;4.50;;
13981;SDS011;7065;50.880;5.502;2023-05-07T08:24:17;4.68;;;3.88;;
13981;SDS011;7065;50.880;5.502;2023-05-07T08:26:43;4.80;;;4.38;;
13981;SDS011;7065;50.880;5.502;2023-05-07T08:29:10;4.60;;;4.20;;
13981;SDS011;7065;50.880;5.502;2023-05-07T08:31:35;4.50;;;3.10;;
13981;SDS011;7065;50.880;5.502;2023-05-07T08:34:02;4.10;;;3.63;;
13981;SDS011;7065;50.880;5.502;2023-05-07T08:36:29;4.38;;;3.28;;
13981;SDS011;7065;50.880;5.502;2023-05-07T08:38:54;3.85;;;3.45;;
13981;SDS011;7065;50.880;5.502;2023-05-07T08:41:20;4.05;;;3.22;;
13981;SDS011;7065;50.880;5.502;2023-05-07T08:43:49;4.13;;;3.08;;
13981;SDS011;7065;50.880;5.502;2023-05-07T08:46:22;3.40;;;3.10;;
13981;SDS011;7065;50.880;5.502;2023-05-07T08:48:48;3.67;;;3.03;;
13981;SDS011;7065;50.880;5.502;2023-05-07T08:51:17;3.55;;;3.15;;
13981;SDS011;7065;50.880;5.502;2023-05-07T08:53:44;4.60;;;3.35;;
13981;SDS011;7065;50.880;5.502;2023-05-07T08:56:13;5.47;;;3.70;;
13981;SDS011;7065;50.880;5.502;2023-05-07T08:58:43;4.07;;;3.22;;
13981;SDS011;7065;50.880;5.502;2023-05-07T09:01:18;3.25;;;2.90;;
13981;SDS011;7065;50.880;5.502;2023-05-07T09:03:44;3.63;;;3.25;;
13981;SDS011;7065;50.880;5.502;2023-05-07T09:06:11;6.30;;;3.95;;
13981;SDS011;7065;50.880;5.502;2023-05-07T09:08:37;4.95;;;4.32;;
13981;SDS011;7065;50.880;5.502;2023-05-07T09:11:03;5.18;;;4.65;;
13981;SDS011;7065;50.880;5.502;2023-05-07T09:13:29;4.75;;;4.25;;
13981;SDS011;7065;50.880;5.502;2023-05-07T09:15:55;5.50;;;4.32;;
13981;SDS011;7065;50.880;5.502;2023-05-07T09:18:23;5.50;;;4.35;;
13981;SDS011;7065;50.880;5.502;2023-05-07T09:20:50;4.35;;;3.65;;
13981;SDS011;7065;50.880;5.502;2023-05-07T09:23:16;5.85;;;4.30;;
13981;SDS011;7065;50.880;5.502;2023-05-07T09:25:42;4.50;;;3.50;;
13981;SDS011;7065;50.880;5.502;2023-05-07T09:28:08;5.82;;;3.90;;
13981;SDS011;7065;50.880;5.502;2023-05-07T09:30:36;5.80;;;4.50;;
13981;SDS011;7065;50.880;5.502;2023-05-07T09:33:02;5.68;;;5.05;;
13981;SDS011;7065;50.880;5.502;2023-05-07T09:35:29;7.93;;;4.55;;
13981;SDS011;7065;50.880;5.502;2023-05-07T09:37:59;5.43;;;4.63;;
13981;SDS011;7065;50.880;5.502;2023-05-07T09:40:26;6.13;;;4.55;;
13981;SDS011;7065;50.880;5.502;2023-05-07T09:42:53;6.43;;;5.00;;
13981;SDS011;7065;50.880;5.502;2023-05-07T09:45:25;5.82;;;5.20;;
13981;SDS011;7065;50.880;5.502;2023-05-07T09:47:55;5.88;;;4.70;;
13981;SDS011;7065;50.880;5.502;2023-05-07T09:50:26;11.18;;;5.78;;
13981;SDS011;7065;50.880;5.502;2023-05-07T09:52:56;6.50;;;5.50;;
13981;SDS011;7065;50.880;5.502;2023-05-07T09:55:22;6.88;;;6.18;;
13981;SDS011;7065;50.880;5.502;2023-05-07T09:57:52;6.55;;;5.95;;
13981;SDS011;7065;50.880;5.502;2023-05-07T10:00:19;7.40;;;5.43;;
13981;SDS011;7065;50.880;5.502;2023-05-07T10:02:46;6.05;;;5.47;;
13981;SDS011;7065;50.880;5.502;2023-05-07T10:05:20;7.10;;;5.70;;
13981;SDS011;7065;50.880;5.502;2023-05-07T10:07:47;6.65;;;5.68;;
13981;SDS011;7065;50.880;5.502;2023-05-07T10:10:14;6.97;;;5.25;;
13981;SDS011;7065;50.880;5.502;2023-05-07T10:12:40;7.78;;;6.40;;
13981;SDS011;7065;50.880;5.502;2023-05-07T10:15:10;8.77;;;6.63;;
13981;SDS011;7065;50.880;5.502;2023-05-07T10:17:37;8.80;;;7.07;;
13981;SDS011;7065;50.880;5.502;2023-05-07T10:20:07;9.10;;;7.40;;
13981;SDS011;7065;50.880;5.502;2023-05-07T10:22:47;8.68;;;6.85;;
13981;SDS011;7065;50.880;5.502;2023-05-07T10:25:25;11.52;;;7.05;;
13981;SDS011;7065;50.880;5.502;2023-05-07T10:27:57;8.50;;;7.03;;
13981;SDS011;7065;50.880;5.502;2023-05-07T10:30:38;7.93;;;6.80;;
13981;SDS011;7065;50.880;5.502;2023-05-07T10:33:11;9.25;;;7.13;;
13981;SDS011;7065;50.880;5.502;2023-05-07T10:35:40;7.70;;;5.95;;
13981;SDS011;7065;50.880;5.502;2023-05-07T10:38:09;7.22;;;5.18;;
13981;SDS011;7065;50.880;5.502;2023-05-07T10:40:35;9.52;;;5.97;;
13981;SDS011;7065;50.880;5.502;2023-05-07T10:43:02;6.53;;;4.75;;
13981;SDS011;7065;50.880;5.502;2023-05-07T10:45:32;7.78;;;4.75;;
13981;SDS011;7065;50.880;5.502;2023-05-07T10:48:16;8.63;;;5.18;;
13981;SDS011;7065;50.880;5.502;2023-05-07T10:50:44;8.43;;;4.95;;
13981;SDS011;7065;50.880;5.502;2023-05-07T10:55:48;5.70;;;4.82;;
13981;SDS011;7065;50.880;5.502;2023-05-07T11:00:47;7.88;;;4.60;;
13981;SDS011;7065;50.880;5.502;2023-05-07T11:03:13;7.85;;;5.55;;
13981;SDS011;7065;50.880;5.502;2023-05-07T11:05:40;8.45;;;5.85;;
13981;SDS011;7065;50.880;5.502;2023-05-07T11:08:08;8.52;;;5.10;;
13981;SDS011;7065;50.880;5.502;2023-05-07T11:10:47;10.52;;;5.72;;
13981;SDS011;7065;50.880;5.502;2023-05-07T11:18:51;9.30;;;5.20;;
13981;SDS011;7065;50.880;5.502;2023-05-07T11:21:37;7.05;;;5.22;;
13981;SDS011;7065;50.880;5.502;2023-05-07T11:24:05;12.65;;;6.93;;
13981;SDS011;7065;50.880;5.502;2023-05-07T11:26:48;8.82;;;5.97;;
13981;SDS011;7065;50.880;5.502;2023-05-07T11:29:16;11.85;;;6.60;;
13981;SDS011;7065;50.880;5.502;2023-05-07T11:31:43;7.22;;;6.53;;
13981;SDS011;7065;50.880;5.502;2023-05-07T11:34:14;9.65;;;6.85;;
13981;SDS011;7065;50.880;5.502;2023-05-07T11:36:45;9.20;;;6.60;;
13981;SDS011;7065;50.880;5.502;2023-05-07T11:39:32;8.05;;;6.43;;
13981;SDS011;7065;50.880;5.502;2023-05-07T11:42:01;8.52;;;7.03;;
13981;SDS011;7065;50.880;5.502;2023-05-07T11:44:43;10.27;;;6.93;;
13981;SDS011;7065;50.880;5.502;2023-05-07T11:47:11;9.05;;;6.43;;
13981;SDS011;7065;50.880;5.502;2023-05-07T11:49:41;8.70;;;6.50;;
13981;SDS011;7065;50.880;5.502;2023-05-07T11:52:07;9.77;;;6.55;;
13981;SDS011;7065;50.880;5.502;2023-05-07T11:54:36;7.07;;;6.35;;
13981;SDS011;7065;50.880;5.502;2023-05-07T11:57:02;9.75;;;6.18;;
13981;SDS011;7065;50.880;5.502;2023-05-07T11:59:28;7.95;;;5.75;;
13981;SDS011;7065;50.880;5.502;2023-05-07T12:01:57;7.95;;;5.43;;
13981;SDS011;7065;50.880;5.502;2023-05-07T12:04:24;7.53;;;4.95;;
13981;SDS011;7065;50.880;5.502;2023-05-07T12:06:53;6.85;;;5.43;;
13981;SDS011;7065;50.880;5.502;2023-05-07T12:09:20;7.68;;;5.07;;
13981;SDS011;7065;50.880;5.502;2023-05-07T12:11:47;10.07;;;5.75;;
13981;SDS011;7065;50.880;5.502;2023-05-07T12:14:12;9.27;;;5.32;;
13981;SDS011;7065;50.880;5.502;2023-05-07T12:16:40;10.27;;;5.80;;
13981;SDS011;7065;50.880;5.502;2023-05-07T12:19:07;7.40;;;5.75;;
13981;SDS011;7065;50.880;5.502;2023-05-07T12:21:37;9.30;;;5.40;;
13981;SDS011;7065;50.880;5.502;2023-05-07T12:24:04;7.35;;;4.25;;
13981;SDS011;7065;50.880;5.502;2023-05-07T12:26:30;7.10;;;4.60;;
13981;SDS011;7065;50.880;5.502;2023-05-07T12:28:57;8.70;;;3.60;;
13981;SDS011;7065;50.880;5.502;2023-05-07T12:31:23;6.35;;;4.18;;
13981;SDS011;7065;50.880;5.502;2023-05-07T12:33:51;6.68;;;4.40;;
13981;SDS011;7065;50.880;5.502;2023-05-07T12:36:17;8.13;;;5.88;;
13981;SDS011;7065;50.880;5.502;2023-05-07T12:38:43;7.82;;;5.13;;
13981;SDS011;7065;50.880;5.502;2023-05-07T12:41:09;9.65;;;5.38;;
13981;SDS011;7065;50.880;5.502;2023-05-07T12:43:37;6.70;;;4.47;;
13981;SDS011;7065;50.880;5.502;2023-05-07T12:46:04;6.30;;;3.90;;
13981;SDS011;7065;50.880;5.502;2023-05-07T12:48:31;8.30;;;4.68;;
13981;SDS011;7065;50.880;5.502;2023-05-07T12:50:58;5.25;;;2.65;;
13981;SDS011;7065;50.880;5.502;2023-05-07T12:53:26;6.70;;;3.50;;
13981;SDS011;7065;50.880;5.502;2023-05-07T12:55:53;5.28;;;3.83;;
13981;SDS011;7065;50.880;5.502;2023-05-07T12:58:30;5.50;;;3.45;;
13981;SDS011;7065;50.880;5.502;2023-05-07T13:00:59;6.70;;;4.55;;
13981;SDS011;7065;50.880;5.502;2023-05-07T13:05:53;7.10;;;4.50;;
13981;SDS011;7065;50.880;5.502;2023-05-07T13:10:59;7.43;;;4.90;;
13981;SDS011;7065;50.880;5.502;2023-05-07T13:13:32;7.32;;;4.18;;
13981;SDS011;7065;50.880;5.502;2023-05-07T13:16:00;7.25;;;4.90;;
13981;SDS011;7065;50.880;5.502;2023-05-07T13:18:26;5.70;;;4.30;;
13981;SDS011;7065;50.880;5.502;2023-05-07T13:20:54;4.95;;;3.97;;
13981;SDS011;7065;50.880;5.502;2023-05-07T13:23:19;4.95;;;3.70;;
13981;SDS011;7065;50.880;5.502;2023-05-07T13:25:45;7.03;;;4.10;;
13981;SDS011;7065;50.880;5.502;2023-05-07T13:28:11;7.40;;;4.15;;
13981;SDS011;7065;50.880;5.502;2023-05-07T13:30:38;7.32;;;4.25;;
13981;SDS011;7065;50.880;5.502;2023-05-07T13:33:05;6.40;;;3.58;;
13981;SDS011;7065;50.880;5.502;2023-05-07T13:35:31;6.00;;;3.75;;
13981;SDS011;7065;50.880;5.502;2023-05-07T13:37:57;5.13;;;3.97;;
13981;SDS011;7065;50.880;5.502;2023-05-07T13:40:23;4.90;;;3.80;;
13981;SDS011;7065;50.880;5.502;2023-05-07T13:42:49;4.95;;;3.70;;
13981;SDS011;7065;50.880;5.502;2023-05-07T13:45:16;7.53;;;3.70;;
13981;SDS011;7065;50.880;5.502;2023-05-07T13:47:43;4.43;;;3.30;;
13981;SDS011;7065;50.880;5.502;2023-05-07T13:50:09;6.28;;;3.20;;
13981;SDS011;7065;50.880;5.502;2023-05-07T13:52:39;5.38;;;2.70;;
13981;SDS011;7065;50.880;5.502;2023-05-07T13:55:08;4.93;;;2.85;;
13981;SDS011;7065;50.880;5.502;2023-05-07T13:57:34;4.00;;;2.97;;
13981;SDS011;7065;50.880;5.502;2023-05-07T14:00:00;5.72;;;2.60;;
13981;SDS011;7065;50.880;5.502;2023-05-07T14:02:26;3.78;;;2.65;;
13981;SDS011;7065;50.880;5.502;2023-05-07T14:04:52;4.30;;;2.80;;
13981;SDS011;7065;50.880;5.502;2023-05-07T14:07:17;4.97;;;2.30;;
13981;SDS011;7065;50.880;5.502;2023-05-07T14:09:43;4.47;;;2.10;;
13981;SDS011;7065;50.880;5.502;2023-05-07T14:12:10;4.65;;;2.30;;
13981;SDS011;7065;50.880;5.502;2023-05-07T14:14:36;4.40;;;2.40;;
13981;SDS011;7065;50.880;5.502;2023-05-07T14:17:02;4.20;;;2.20;;
13981;SDS011;7065;50.880;5.502;2023-05-07T14:19:27;5.38;;;2.28;;
13981;SDS011;7065;50.880;5.502;2023-05-07T14:21:53;3.67;;;2.13;;
13981;SDS011;7065;50.880;5.502;2023-05-07T14:24:19;3.35;;;2.38;;
13981;SDS011;7065;50.880;5.502;2023-05-07T14:26:45;3.97;;;2.10;;
13981;SDS011;7065;50.880;5.502;2023-05-07T14:29:11;4.43;;;2.15;;
13981;SDS011;7065;50.880;5.502;2023-05-07T14:31:36;4.22;;;2.33;;
13981;SDS011;7065;50.880;5.502;2023-05-07T14:34:02;5.03;;;2.40;;
13981;SDS011;7065;50.880;5.502;2023-05-07T14:36:28;5.00;;;2.58;;
13981;SDS011;7065;50.880;5.502;2023-05-07T14:38:55;4.63;;;2.58;;
13981;SDS011;7065;50.880;5.502;2023-05-07T14:41:21;5.05;;;2.22;;
13981;SDS011;7065;50.880;5.502;2023-05-07T14:43:47;5.47;;;2.25;;
13981;SDS011;7065;50.880;5.502;2023-05-07T14:46:17;3.97;;;2.50;;
13981;SDS011;7065;50.880;5.502;2023-05-07T14:48:46;3.65;;;2.35;;
13981;SDS011;7065;50.880;5.502;2023-05-07T14:51:13;5.10;;;2.80;;
13981;SDS011;7065;50.880;5.502;2023-05-07T14:53:40;2.22;;;2.03;;
13981;SDS011;7065;50.880;5.502;2023-05-07T14:56:06;4.03;;;2.90;;
13981;SDS011;7065;50.880;5.502;2023-05-07T14:58:33;3.58;;;2.28;;
13981;SDS011;7065;50.880;5.502;2023-05-07T15:00:59;5.28;;;2.03;;
13981;SDS011;7065;50.880;5.502;2023-05-07T15:03:25;3.38;;;1.90;;
13981;SDS011;7065;50.880;5.502;2023-05-07T15:05:51;5.35;;;2.28;;
13981;SDS011;7065;50.880;5.502;2023-05-07T15:08:17;5.40;;;2.25;;
13981;SDS011;7065;50.880;5.502;2023-05-07T15:10:44;2.72;;;1.92;;